createdAt,value
2022-10-19T00:01:15.397Z,101832.84
2022-10-19T00:03:43.984Z,101828.50
2022-10-19T00:06:25.803Z,101825.97
2022-10-19T00:08:56.436Z,101831.25
2022-10-19T00:11:24.403Z,101829.63
2022-10-19T00:13:52.725Z,101833.97
2022-10-19T00:16:20.802Z,101829.44
2022-10-19T00:18:48.279Z,101824.28
2022-10-19T00:21:17.921Z,101821.56
2022-10-19T00:23:45.893Z,101827.69
2022-10-19T00:26:13.725Z,101828.63
2022-10-19T00:28:42.880Z,101832.00
2022-10-19T00:31:13.249Z,101828.63
2022-10-19T00:33:42.664Z,101832.97
2022-10-19T00:36:23.108Z,101830.19
2022-10-19T00:38:51.063Z,101829.22
2022-10-19T00:41:19.859Z,101835.56
2022-10-19T00:44:08.221Z,101828.50
2022-10-19T00:46:39.060Z,101830.19
2022-10-19T00:49:14.467Z,101832.84
2022-10-19T00:51:45.422Z,101836.28
2022-10-19T00:54:13.040Z,101831.72
2022-10-19T00:56:43.266Z,101831.78
2022-10-19T00:59:11.132Z,101839.50
2022-10-19T01:01:38.955Z,101843.00
2022-10-19T01:04:06.675Z,101838.53
2022-10-19T01:06:34.429Z,101838.66
2022-10-19T01:09:27.693Z,101831.66
2022-10-19T01:12:01.397Z,101823.81
2022-10-19T01:14:37.884Z,101824.66
2022-10-19T01:17:39.080Z,101814.09
2022-10-19T01:20:25.656Z,101818.47
2022-10-19T01:23:24.325Z,101809.75
2022-10-19T01:26:26.607Z,101807.00
2022-10-19T01:29:08.755Z,101798.97
2022-10-19T01:32:14.733Z,101808.59
2022-10-19T01:34:52.416Z,101801.31
2022-10-19T01:37:25.376Z,101805.00
2022-10-19T01:39:57.967Z,101795.53
2022-10-19T01:42:32.621Z,101798.25
2022-10-19T01:45:09.337Z,101806.16
2022-10-19T01:48:04.775Z,101803.38
2022-10-19T01:50:37.570Z,101799.88
2022-10-19T01:53:07.539Z,101805.22
2022-10-19T01:55:35.144Z,101795.47
2022-10-19T01:58:08.299Z,101806.03
2022-10-19T02:00:39.421Z,101799.94
2022-10-19T02:03:07.671Z,101800.66
2022-10-19T02:05:37.315Z,101792.84
2022-10-19T02:08:11.301Z,101796.38
2022-10-19T02:10:40.317Z,101797.22
2022-10-19T02:13:08.274Z,101790.25
2022-10-19T02:15:37.577Z,101785.63
2022-10-19T02:18:07.211Z,101784.63
2022-10-19T02:20:37.079Z,101782.22
2022-10-19T02:23:05.534Z,101789.28
2022-10-19T02:25:33.729Z,101784.97
2022-10-19T02:28:02.768Z,101787.59
2022-10-19T02:30:30.517Z,101786.56
2022-10-19T02:32:57.990Z,101798.28
2022-10-19T02:35:25.574Z,101796.56
2022-10-19T02:38:05.781Z,101790.56
2022-10-19T02:40:37.814Z,101782.63
2022-10-19T02:43:10.821Z,101789.72
2022-10-19T02:45:46.937Z,101793.38
2022-10-19T02:48:19.943Z,101790.00
2022-10-19T02:50:48.502Z,101794.34
2022-10-19T02:53:16.701Z,101800.63
2022-10-19T02:55:44.670Z,101790.28
2022-10-19T02:58:12.385Z,101793.50
2022-10-19T03:00:40.093Z,101795.94
2022-10-19T03:03:07.729Z,101790.09
2022-10-19T03:05:35.310Z,101792.00
2022-10-19T03:08:02.797Z,101791.78
2022-10-19T03:10:30.277Z,101790.13
2022-10-19T03:12:59.912Z,101800.88
2022-10-19T03:15:29.937Z,101794.81
2022-10-19T03:17:57.759Z,101799.09
2022-10-19T03:20:25.482Z,101802.81
2022-10-19T03:25:26.452Z,101810.44
2022-10-19T03:27:53.815Z,101801.81
2022-10-19T03:30:21.181Z,101808.66
2022-10-19T03:32:48.659Z,101804.63
2022-10-19T03:35:16.261Z,101805.75
2022-10-19T03:37:43.864Z,101817.03
2022-10-19T03:40:11.576Z,101816.16
2022-10-19T03:42:38.939Z,101818.47
2022-10-19T03:45:07.011Z,101814.25
2022-10-19T03:47:34.826Z,101819.53
2022-10-19T03:50:02.462Z,101819.59
2022-10-19T03:52:30.418Z,101823.28
2022-10-19T03:54:57.662Z,101814.59
2022-10-19T03:57:25.383Z,101823.34
2022-10-19T03:59:52.869Z,101820.53
2022-10-19T04:02:22.867Z,101823.09
2022-10-19T04:04:50.479Z,101831.13
2022-10-19T04:07:18.055Z,101834.75
2022-10-19T04:09:45.912Z,101832.84
2022-10-19T04:12:13.402Z,101830.13
2022-10-19T04:14:56.443Z,101832.97
2022-10-19T04:17:25.775Z,101825.38
2022-10-19T04:19:53.238Z,101835.34
2022-10-19T04:22:20.719Z,101840.81
2022-10-19T04:24:48.081Z,101841.84
2022-10-19T04:27:15.807Z,101844.56
2022-10-19T04:29:43.177Z,101838.75
2022-10-19T04:32:10.790Z,101845.69
2022-10-19T04:34:40.003Z,101848.25
2022-10-19T04:37:07.781Z,101851.13
2022-10-19T04:39:39.473Z,101847.00
2022-10-19T04:42:07.172Z,101846.25
2022-10-19T04:44:34.667Z,101853.97
2022-10-19T04:47:02.258Z,101848.25
2022-10-19T04:49:30.026Z,101854.44
2022-10-19T04:51:57.576Z,101861.69
2022-10-19T04:54:25.062Z,101855.56
2022-10-19T04:56:54.048Z,101864.31
2022-10-19T04:59:21.707Z,101860.38
2022-10-19T05:01:49.423Z,101861.22
2022-10-19T05:04:17.030Z,101866.56
2022-10-19T05:06:45.304Z,101863.31
2022-10-19T05:09:13.314Z,101871.09
2022-10-19T05:11:41.050Z,101873.75
2022-10-19T05:14:09.001Z,101877.91
2022-10-19T05:16:36.604Z,101877.84
2022-10-19T05:19:04.199Z,101874.09
2022-10-19T05:21:31.921Z,101890.09
2022-10-19T05:23:59.406Z,101884.28
2022-10-19T05:26:27.973Z,101883.63
2022-10-19T05:29:02.069Z,101875.03
2022-10-19T05:31:32.056Z,101876.13
2022-10-19T05:34:00.470Z,101881.25
2022-10-19T05:36:34.539Z,101882.47
2022-10-19T05:39:14.919Z,101877.56
2022-10-19T05:41:46.692Z,101887.94
2022-10-19T05:44:22.705Z,101883.19
2022-10-19T05:46:51.045Z,101888.47
2022-10-19T05:49:21.267Z,101888.50
2022-10-19T05:51:49.229Z,101886.00
2022-10-19T05:54:19.099Z,101901.75
2022-10-19T05:56:48.387Z,101894.44
2022-10-19T05:59:18.983Z,101887.41
2022-10-19T06:01:47.002Z,101887.38
2022-10-19T06:04:15.050Z,101896.41
2022-10-19T06:06:43.240Z,101893.03
2022-10-19T06:09:10.695Z,101900.03
2022-10-19T06:11:40.064Z,101898.25
2022-10-19T06:14:11.333Z,101897.16
2022-10-19T06:16:38.848Z,101904.78
2022-10-19T06:19:06.146Z,101901.94
2022-10-19T06:21:34.032Z,101903.84
2022-10-19T06:24:03.900Z,101908.38
2022-10-19T06:26:32.334Z,101912.50
2022-10-19T06:29:00.881Z,101905.94
2022-10-19T06:31:33.922Z,101910.38
2022-10-19T06:34:01.496Z,101905.06
2022-10-19T06:36:32.095Z,101912.06
2022-10-19T06:39:01.484Z,101913.00
2022-10-19T06:41:31.183Z,101914.50
2022-10-19T06:43:58.490Z,101903.03
2022-10-19T06:46:26.468Z,101912.88
2022-10-19T06:48:55.528Z,101916.38
2022-10-19T06:51:24.522Z,101914.75
2022-10-19T06:53:56.678Z,101920.78
2022-10-19T06:56:25.424Z,101913.56
2022-10-19T06:58:52.781Z,101920.03
2022-10-19T07:01:20.246Z,101925.13
2022-10-19T07:03:47.488Z,101920.88
2022-10-19T07:06:14.623Z,101930.75
2022-10-19T07:08:42.590Z,101930.56
2022-10-19T07:11:12.096Z,101928.53
2022-10-19T07:13:39.337Z,101935.75
2022-10-19T07:16:15.948Z,101942.13
2022-10-19T07:18:47.124Z,101937.91
2022-10-19T07:21:16.189Z,101940.38
2022-10-19T07:23:47.300Z,101945.16
2022-10-19T07:26:21.236Z,101952.25
2022-10-19T07:28:49.078Z,101949.69
2022-10-19T07:31:20.314Z,101956.66
2022-10-19T07:33:51.232Z,101958.94
2022-10-19T07:36:18.303Z,101965.13
2022-10-19T07:38:45.486Z,101960.72
2022-10-19T07:41:15.271Z,101964.94
2022-10-19T07:43:43.451Z,101963.28
2022-10-19T07:46:18.965Z,101961.13
2022-10-19T07:48:46.425Z,101972.22
2022-10-19T07:51:15.440Z,101969.78
2022-10-19T07:53:42.938Z,101964.66
2022-10-19T07:56:17.929Z,101968.81
2022-10-19T07:58:45.336Z,101969.22
2022-10-19T08:01:15.314Z,101967.97
2022-10-19T08:04:42.721Z,101969.66
2022-10-19T08:06:29.899Z,101966.50
2022-10-19T08:08:57.350Z,101976.88
2022-10-19T08:11:29.932Z,101980.41
2022-10-19T08:14:00.276Z,101983.38
2022-10-19T08:16:40.330Z,101979.16
2022-10-19T08:19:12.566Z,101987.44
2022-10-19T08:21:41.744Z,101988.53
2022-10-19T08:24:09.115Z,101988.59
2022-10-19T08:26:38.187Z,101984.84
2022-10-19T08:29:08.198Z,101986.22
2022-10-19T08:31:35.370Z,101997.22
2022-10-19T08:34:02.819Z,101992.63
2022-10-19T08:36:35.405Z,101990.66
2022-10-19T08:39:04.772Z,101991.31
2022-10-19T08:41:59.640Z,101997.81
2022-10-19T08:44:54.727Z,101998.22
2022-10-19T08:47:26.429Z,102003.03
2022-10-19T08:49:53.961Z,101997.25
2022-10-19T08:52:34.231Z,101997.22
2022-10-19T08:55:15.086Z,101997.25
2022-10-19T08:58:13.896Z,101994.94
2022-10-19T09:00:46.070Z,101995.69
2022-10-19T09:04:01.041Z,101992.09
2022-10-19T09:06:44.822Z,101996.44
2022-10-19T09:09:15.669Z,102005.09
2022-10-19T09:11:45.982Z,102002.13
2022-10-19T09:14:21.846Z,102002.84
2022-10-19T09:16:48.965Z,102010.78
2022-10-19T09:19:25.476Z,102008.50
2022-10-19T09:22:03.274Z,102015.00
2022-10-19T09:24:55.635Z,102010.91
2022-10-19T09:27:25.306Z,102006.78
2022-10-19T09:29:57.144Z,102011.72
2022-10-19T09:32:28.659Z,102024.56
2022-10-19T09:34:58.838Z,102026.50
2022-10-19T09:37:26.897Z,102024.97
2022-10-19T09:39:55.725Z,102021.28
2022-10-19T09:42:25.888Z,102021.91
2022-10-19T09:44:54.651Z,102031.06
2022-10-19T09:47:30.504Z,102025.78
2022-10-19T09:50:19.112Z,102029.19
2022-10-19T09:52:47.717Z,102028.00
2022-10-19T09:55:14.737Z,102032.00
2022-10-19T09:57:42.978Z,102036.28
2022-10-19T10:00:21.416Z,102034.16
2022-10-19T10:02:53.122Z,102037.06
2022-10-19T10:05:20.781Z,102043.03
2022-10-19T10:07:48.096Z,102046.41
2022-10-19T10:10:30.505Z,102039.19
2022-10-19T10:12:59.492Z,102044.16
2022-10-19T10:15:28.978Z,102042.53
2022-10-19T10:17:57.265Z,102039.91
2022-10-19T10:20:28.342Z,102029.94
2022-10-19T10:23:01.220Z,102025.84
2022-10-19T10:25:31.044Z,102033.25
2022-10-19T10:28:01.553Z,102040.81
2022-10-19T10:30:34.111Z,102037.41
2022-10-19T10:33:09.386Z,102035.31
2022-10-19T10:35:53.463Z,102030.00
2022-10-19T10:38:25.232Z,102039.13
2022-10-19T10:40:54.776Z,102047.44
2022-10-19T10:43:30.051Z,102044.22
2022-10-19T10:46:01.856Z,102045.28
2022-10-19T10:48:40.403Z,102040.63
2022-10-19T10:51:18.709Z,102040.13
2022-10-19T10:53:45.972Z,102042.13
2022-10-19T10:56:41.046Z,102037.72
2022-10-19T10:59:19.861Z,102036.28
2022-10-19T11:02:14.694Z,102042.59
2022-10-19T11:04:52.157Z,102037.94
2022-10-19T11:07:25.106Z,102040.03
2022-10-19T11:10:09.843Z,102034.75
2022-10-19T11:12:45.463Z,102028.38
2022-10-19T11:15:52.774Z,102035.13
2022-10-19T11:18:25.160Z,102032.69
2022-10-19T11:21:09.761Z,102031.91
2022-10-19T11:23:48.435Z,102031.66
2022-10-19T11:26:30.640Z,102036.78
2022-10-19T11:29:08.205Z,102033.25
2022-10-19T11:31:51.010Z,102039.69
2022-10-19T11:34:30.032Z,102032.00
2022-10-19T11:37:13.691Z,102019.06
2022-10-19T11:40:16.869Z,102025.59
2022-10-19T11:42:57.187Z,102019.94
2022-10-19T11:45:37.483Z,102026.19
2022-10-19T11:48:30.480Z,102017.53
2022-10-19T11:51:21.664Z,102018.81
2022-10-19T11:54:03.016Z,102017.69
2022-10-19T11:57:01.683Z,102017.03
2022-10-19T11:59:42.404Z,102019.94
2022-10-19T12:02:38.320Z,102019.41
2022-10-19T12:05:26.387Z,102014.78
2022-10-19T12:08:11.875Z,102008.81
2022-10-19T12:10:55.052Z,102014.69
2022-10-19T12:13:39.925Z,102013.03
2022-10-19T12:16:07.471Z,102010.97
2022-10-19T12:18:48.206Z,102018.69
2022-10-19T12:21:29.297Z,102015.66
2022-10-19T12:23:57.801Z,102013.66
2022-10-19T12:26:25.764Z,102013.38
2022-10-19T12:28:57.010Z,102003.97
2022-10-19T12:31:25.312Z,102006.59
2022-10-19T12:34:21.194Z,102004.44
2022-10-19T12:36:58.981Z,102002.19
2022-10-19T12:39:50.575Z,101999.03
2022-10-19T12:42:37.115Z,101998.28
2022-10-19T12:45:23.072Z,101992.59
2022-10-19T12:48:08.359Z,101997.69
2022-10-19T12:50:50.478Z,102000.41
2022-10-19T12:53:48.748Z,101994.34
2022-10-19T12:56:20.181Z,101994.16
2022-10-19T12:58:52.937Z,101996.22
2022-10-19T13:01:23.464Z,101984.47
2022-10-19T13:03:54.158Z,101995.97
2022-10-19T13:06:24.059Z,101994.03
2022-10-19T13:08:53.959Z,101997.88
2022-10-19T13:11:21.329Z,101979.53
2022-10-19T13:14:01.477Z,101988.25
2022-10-19T13:16:28.533Z,101983.75
2022-10-19T13:19:04.776Z,101984.97
2022-10-19T13:21:56.855Z,101982.53
2022-10-19T13:24:23.831Z,101980.34
2022-10-19T13:26:59.719Z,101981.81
2022-10-19T13:29:29.883Z,101980.16
2022-10-19T13:32:32.461Z,101979.28
2022-10-19T13:35:21.360Z,101971.06
2022-10-19T13:38:12.906Z,101982.41
2022-10-19T13:40:48.918Z,101975.69
2022-10-19T13:43:24.227Z,101965.06
2022-10-19T13:46:08.918Z,101966.78
2022-10-19T13:48:38.920Z,101963.66
2022-10-19T13:51:31.623Z,101959.31
2022-10-19T13:54:17.753Z,101966.19
2022-10-19T13:57:07.807Z,101968.00
2022-10-19T13:59:48.694Z,101966.47
2022-10-19T14:02:34.667Z,101971.81
2022-10-19T14:05:38.875Z,101966.69
2022-10-19T14:08:43.512Z,101969.97
2022-10-19T14:11:16.123Z,101960.88
2022-10-19T14:13:43.873Z,101965.63
2022-10-19T14:16:19.649Z,101958.34
2022-10-19T14:18:56.213Z,101953.34
2022-10-19T14:21:34.642Z,101954.19
2022-10-19T14:24:01.769Z,101952.97
2022-10-19T14:26:32.907Z,101949.31
2022-10-19T14:29:00.093Z,101953.72
2022-10-19T14:31:34.366Z,101947.25
2022-10-19T14:34:03.852Z,101950.53
2022-10-19T14:36:35.934Z,101953.41
2022-10-19T14:39:03.564Z,101952.94
2022-10-19T14:44:27.900Z,101943.28
2022-10-19T14:46:55.456Z,101943.06
2022-10-19T14:49:22.702Z,101938.91
2022-10-19T14:51:52.800Z,101941.00
2022-10-19T14:54:36.045Z,101947.34
2022-10-19T14:57:15.578Z,101940.72
2022-10-19T14:59:46.390Z,101938.31
2022-10-19T15:02:21.324Z,101939.66
2022-10-19T15:04:48.625Z,101940.84
2022-10-19T15:07:24.717Z,101939.53
2022-10-19T15:09:55.122Z,101942.16
2022-10-19T15:12:40.385Z,101938.34
2022-10-19T15:15:16.685Z,101932.50
2022-10-19T15:17:52.834Z,101932.72
2022-10-19T15:20:54.894Z,101936.84
2022-10-19T15:23:38.459Z,101931.41
2022-10-19T15:26:21.288Z,101940.38
2022-10-19T15:28:49.137Z,101944.47
2022-10-19T15:31:27.615Z,101940.72
2022-10-19T15:33:59.509Z,101936.28
2022-10-19T15:36:27.938Z,101948.50
2022-10-19T15:39:06.115Z,101939.69
2022-10-19T15:41:45.020Z,101941.94
2022-10-19T15:44:40.293Z,101948.44
2022-10-19T15:47:17.996Z,101950.25
2022-10-19T15:49:45.667Z,101947.75
2022-10-19T15:52:23.155Z,101951.53
2022-10-19T15:54:51.787Z,101949.19
2022-10-19T15:57:29.972Z,101949.09
2022-10-19T15:59:58.845Z,101952.69
2022-10-19T16:02:26.155Z,101952.41
2022-10-19T16:04:54.432Z,101952.56
2022-10-19T16:07:29.403Z,101957.22
2022-10-19T16:09:57.178Z,101964.28
2022-10-19T16:12:26.234Z,101959.22
2022-10-19T16:14:54.216Z,101959.84
2022-10-19T16:17:21.307Z,101962.25
2022-10-19T16:19:48.554Z,101958.84
2022-10-19T16:22:16.182Z,101959.03
2022-10-19T16:24:43.321Z,101962.00
2022-10-19T16:27:15.021Z,101964.50
2022-10-19T16:29:43.509Z,101967.56
2022-10-19T16:32:10.621Z,101971.94
2022-10-19T16:34:38.052Z,101963.47
2022-10-19T16:37:06.960Z,101965.09
2022-10-19T16:39:34.909Z,101969.13
2022-10-19T16:42:02.057Z,101972.38
2022-10-19T16:44:29.311Z,101975.44
2022-10-19T16:46:57.404Z,101982.94
2022-10-19T16:49:24.937Z,101984.94
2022-10-19T16:51:54.881Z,101982.94
2022-10-19T16:54:26.461Z,101981.00
2022-10-19T16:56:55.497Z,101988.03
2022-10-19T16:59:22.652Z,101980.78
2022-10-19T17:01:49.984Z,101988.75
2022-10-19T17:04:18.013Z,101992.66
2022-10-19T17:06:46.150Z,101989.19
2022-10-19T17:09:37.023Z,101995.59
2022-10-19T17:12:01.118Z,101996.38
2022-10-19T17:14:28.249Z,101989.19
2022-10-19T17:16:55.384Z,101996.06
2022-10-19T17:19:23.184Z,101990.34
2022-10-19T17:21:50.519Z,101998.34
2022-10-19T17:24:21.911Z,102006.84
2022-10-19T17:26:50.983Z,102004.66
2022-10-19T17:29:18.959Z,102017.66
2022-10-19T17:31:46.114Z,102014.22
2022-10-19T17:34:13.466Z,102014.59
2022-10-19T17:36:44.718Z,102016.88
2022-10-19T17:39:18.133Z,102017.56
2022-10-19T17:41:47.064Z,102009.28
2022-10-19T17:44:14.979Z,102013.94
2022-10-19T17:46:42.376Z,102017.53
2022-10-19T17:49:10.182Z,102021.06
2022-10-19T17:51:38.122Z,102009.63
2022-10-19T17:54:08.035Z,102007.00
2022-10-19T17:56:36.452Z,102011.56
2022-10-19T17:59:04.159Z,102014.38
2022-10-19T18:01:31.316Z,102014.72
2022-10-19T18:03:58.622Z,102010.56
2022-10-19T18:06:29.594Z,102018.81
2022-10-19T18:08:57.816Z,102015.53
2022-10-19T18:11:46.512Z,102017.53
2022-10-19T18:14:13.730Z,102023.06
2022-10-19T18:16:44.710Z,102018.06
2022-10-19T18:19:15.982Z,102013.06
2022-10-19T18:21:44.805Z,102014.38
2022-10-19T18:24:16.533Z,102019.81
2022-10-19T18:26:43.695Z,102012.13
2022-10-19T18:29:17.088Z,102012.28
2022-10-19T18:31:44.229Z,102014.09
2022-10-19T18:34:14.877Z,102020.44
2022-10-19T18:36:42.005Z,102019.03
2022-10-19T18:39:10.800Z,102017.03
2022-10-19T18:41:38.524Z,102022.56
2022-10-19T18:44:06.825Z,102023.72
2022-10-19T18:46:36.753Z,102022.09
2022-10-19T18:49:05.825Z,102028.16
2022-10-19T18:51:32.971Z,102026.44
2022-10-19T18:54:00.135Z,102026.56
2022-10-19T18:56:27.663Z,102019.97
2022-10-19T18:58:54.986Z,102020.97
2022-10-19T19:01:24.474Z,102034.22
2022-10-19T19:03:53.351Z,102020.50
2022-10-19T19:06:22.850Z,102021.41
2022-10-19T19:08:50.983Z,102015.16
2022-10-19T19:11:26.651Z,102014.38
2022-10-19T19:13:57.168Z,102023.41
2022-10-19T19:16:25.907Z,102024.63
2022-10-19T19:18:54.677Z,102021.16
2022-10-19T19:21:24.893Z,102019.28
2022-10-19T19:23:53.239Z,102019.44
2022-10-19T19:26:27.836Z,102020.53
2022-10-19T19:28:59.202Z,102016.22
2022-10-19T19:31:30.201Z,102016.53
2022-10-19T19:34:03.321Z,102019.34
2022-10-19T19:36:31.050Z,102016.94
2022-10-19T19:38:59.616Z,102025.19
2022-10-19T19:41:28.992Z,102025.53
2022-10-19T19:43:58.160Z,102016.72
2022-10-19T19:46:27.074Z,102017.16
2022-10-19T19:49:01.520Z,102018.06
2022-10-19T19:51:30.093Z,102012.91
2022-10-19T19:54:01.194Z,102014.28
2022-10-19T19:56:29.364Z,102012.72
2022-10-19T19:58:58.700Z,102015.19
2022-10-19T20:01:27.048Z,102014.13
2022-10-19T20:03:55.142Z,102018.75
2022-10-19T20:06:25.797Z,102017.13
2022-10-19T20:08:55.093Z,102021.47
2022-10-19T20:11:24.032Z,102021.44
2022-10-19T20:13:56.972Z,102028.53
2022-10-19T20:16:29.323Z,102028.50
2022-10-19T20:19:04.901Z,102026.66
2022-10-19T20:21:33.950Z,102022.47
2022-10-19T20:24:01.795Z,102021.72
2022-10-19T20:26:30.230Z,102020.78
2022-10-19T20:28:57.969Z,102026.13
2022-10-19T20:34:01.308Z,102036.97
2022-10-19T20:36:28.790Z,102033.44
2022-10-19T20:38:58.066Z,102033.53
2022-10-19T20:41:27.961Z,102039.81
2022-10-19T20:43:55.801Z,102034.03
2022-10-19T20:46:26.029Z,102035.09
2022-10-19T20:48:54.839Z,102037.03
2022-10-19T20:51:30.722Z,102038.72
2022-10-19T20:54:02.310Z,102043.16
2022-10-19T20:56:31.927Z,102038.34
2022-10-19T20:59:14.525Z,102042.06
2022-10-19T21:01:44.230Z,102049.03
2022-10-19T21:04:15.035Z,102047.53
2022-10-19T21:06:44.647Z,102049.25
2022-10-19T21:09:16.065Z,102045.09
2022-10-19T21:11:45.522Z,102042.56
2022-10-19T21:14:25.208Z,102046.28
2022-10-19T21:16:57.149Z,102042.91
2022-10-19T21:19:26.292Z,102044.66
2022-10-19T21:21:58.571Z,102045.59
2022-10-19T21:24:29.547Z,102036.00
2022-10-19T21:26:57.017Z,102035.13
2022-10-19T21:29:24.506Z,102031.97
2022-10-19T21:31:53.065Z,102040.84
2022-10-19T21:34:26.057Z,102034.66
2022-10-19T21:36:53.775Z,102038.06
2022-10-19T21:39:21.295Z,102037.00
2022-10-19T21:41:49.697Z,102034.31
2022-10-19T21:44:18.033Z,102030.63
2022-10-19T21:47:48.986Z,102037.50
2022-10-19T21:50:17.547Z,102033.25
2022-10-19T21:52:45.035Z,102026.28
2022-10-19T21:55:12.634Z,102022.28
2022-10-19T21:57:40.239Z,102027.22
2022-10-19T22:00:08.005Z,102024.78
2022-10-19T22:02:35.797Z,102027.34
2022-10-19T22:05:03.282Z,102018.47
2022-10-19T22:11:50.562Z,102016.84
2022-10-19T22:14:18.399Z,102011.13
2022-10-19T22:16:46.605Z,102013.91
2022-10-19T22:19:15.066Z,102011.50
2022-10-19T22:21:42.779Z,102007.00
2022-10-19T22:24:13.872Z,102009.78
2022-10-19T22:26:50.890Z,102006.50
2022-10-19T22:29:18.895Z,102005.88
2022-10-19T22:31:46.378Z,101999.69
2022-10-19T22:34:16.619Z,101998.78
2022-10-19T22:36:44.822Z,102000.53
2022-10-19T22:39:12.922Z,101988.28
2022-10-19T22:41:40.620Z,101996.94
2022-10-19T22:44:08.350Z,101991.81
2022-10-19T22:46:36.188Z,101985.94
2022-10-19T22:49:16.263Z,101988.66
2022-10-19T22:51:43.870Z,101991.38
2022-10-19T22:54:11.474Z,101987.16
2022-10-19T22:56:39.434Z,101984.63
2022-10-19T22:59:07.295Z,101977.72
2022-10-19T23:01:35.629Z,101982.28
2022-10-19T23:04:03.455Z,101985.97
2022-10-19T23:06:31.036Z,101973.63
2022-10-19T23:08:58.567Z,101976.25
2022-10-19T23:11:26.128Z,101983.16
2022-10-19T23:13:53.614Z,101974.31
2022-10-19T23:16:21.003Z,101970.81
2022-10-19T23:18:49.679Z,101968.44
2022-10-19T23:21:17.375Z,101964.16
2022-10-19T23:23:44.993Z,101964.16
2022-10-19T23:26:18.116Z,101973.56
2022-10-19T23:28:47.613Z,101970.22
2022-10-19T23:31:28.659Z,101972.06
2022-10-19T23:33:56.501Z,101979.00
2022-10-19T23:36:28.073Z,101969.44
2022-10-19T23:38:56.616Z,101980.91
2022-10-19T23:41:24.580Z,101984.53
2022-10-19T23:43:52.329Z,101982.81
2022-10-19T23:46:20.147Z,101987.31
2022-10-19T23:48:47.752Z,101986.53
2022-10-19T23:51:17.514Z,101992.81
2022-10-19T23:53:46.902Z,101985.91
2022-10-19T23:56:22.670Z,101985.84
2022-10-19T23:58:51.355Z,101982.38
